Impacts TAF Board INFO
FOR SITUATIONAL AWARENESS. NOT TO BE USED FOR FLIGHT PLANNING PURPOSES.
IDs:

KPHL - Philadelphia Intl, PA, US

Issued at 1747 UTC 22 Jan 2018
Updated at 1759 UTC 22 Jan 2018
Potential Impact None Slight Moderate High
Time<<23/18Z 23/19Z 23/20Z 23/21Z 23/22Z 23/23Z 24/00Z 24/01Z 24/02Z 24/03Z 24/04Z 24/05Z 24/06Z
Type PRVL PRVL PRVL PRVL PRVL PRVL
VIS 4 6 >6 >6 >6 >6
CIG 8 16 35 35 35 35
Cover OVC BKN BKN BKN BKN BKN
FltCat IFR MVFR VFR VFR VFR VFR
WX SHRA -SHRA -- -- -- --
WDir 170 260 270 270 270 270
WSpd 15 9 9 9 9 9
WGst 23 -- -- -- -- --

Raw TAF
KPHL 221747Z 2218/2324 VRB03KT P6SM OVC070
  FM230100 13005KT P6SM BKN220 WS020/20030KT
  FM230800 16007KT 6SM SHRA OVC025 WS020/20035KT
  FM231100 17015G23KT 4SM SHRA OVC008
  FM231900 26009KT 6SM -SHRA BKN016
  FM232000 27009KT P6SM BKN035


METAR Board
Radar Display
Forecast Discussion

FOR SITUATIONAL AWARENESS. NOT TO BE USED FOR FLIGHT PLANNING PURPOSES.